sensor_id;sensor_type;location;lat;lon;timestamp;pressure;altitude;pressure_sealevel;temperature
61977;BMP280;45905;50.570;10.428;2023-07-13T00:01:54;97684.94;;;20.98
61977;BMP280;45905;50.570;10.428;2023-07-13T00:04:24;97680.22;;;20.95
61977;BMP280;45905;50.570;10.428;2023-07-13T00:06:57;97689.94;;;20.93
61977;BMP280;45905;50.570;10.428;2023-07-13T00:09:25;97693.22;;;20.88
61977;BMP280;45905;50.570;10.428;2023-07-13T00:11:56;97697.47;;;20.83
61977;BMP280;45905;50.570;10.428;2023-07-13T00:14:27;97701.69;;;20.78
61977;BMP280;45905;50.570;10.428;2023-07-13T00:16:55;97706.53;;;20.74
61977;BMP280;45905;50.570;10.428;2023-07-13T00:19:22;97702.03;;;20.70
61977;BMP280;45905;50.570;10.428;2023-07-13T00:21:49;97707.06;;;20.65
61977;BMP280;45905;50.570;10.428;2023-07-13T00:24:18;97696.53;;;20.55
61977;BMP280;45905;50.570;10.428;2023-07-13T00:26:51;97708.03;;;20.53
61977;BMP280;45905;50.570;10.428;2023-07-13T00:29:18;97694.28;;;20.47
61977;BMP280;45905;50.570;10.428;2023-07-13T00:31:48;97688.41;;;20.41
61977;BMP280;45905;50.570;10.428;2023-07-13T00:34:16;97693.81;;;20.39
61977;BMP280;45905;50.570;10.428;2023-07-13T00:36:43;97687.31;;;20.37
61977;BMP280;45905;50.570;10.428;2023-07-13T00:39:10;97685.94;;;20.34
61977;BMP280;45905;50.570;10.428;2023-07-13T00:41:37;97689.72;;;20.32
61977;BMP280;45905;50.570;10.428;2023-07-13T00:44:05;97692.97;;;20.27
61977;BMP280;45905;50.570;10.428;2023-07-13T00:46:33;97683.09;;;20.25
61977;BMP280;45905;50.570;10.428;2023-07-13T00:49:12;97682.19;;;20.19
61977;BMP280;45905;50.570;10.428;2023-07-13T00:52:01;97676.91;;;20.14
61977;BMP280;45905;50.570;10.428;2023-07-13T00:54:38;97690.06;;;20.06
61977;BMP280;45905;50.570;10.428;2023-07-13T00:57:12;97690.19;;;20.00
61977;BMP280;45905;50.570;10.428;2023-07-13T00:59:48;97691.84;;;19.95
61977;BMP280;45905;50.570;10.428;2023-07-13T01:02:16;97692.16;;;19.87
61977;BMP280;45905;50.570;10.428;2023-07-13T01:04:43;97682.13;;;19.79
61977;BMP280;45905;50.570;10.428;2023-07-13T01:07:12;97689.72;;;19.74
61977;BMP280;45905;50.570;10.428;2023-07-13T01:09:40;97692.16;;;19.69
61977;BMP280;45905;50.570;10.428;2023-07-13T01:12:07;97693.81;;;19.64
61977;BMP280;45905;50.570;10.428;2023-07-13T01:14:35;97691.09;;;19.59
61977;BMP280;45905;50.570;10.428;2023-07-13T01:17:03;97697.06;;;19.53
61977;BMP280;45905;50.570;10.428;2023-07-13T01:19:43;97687.66;;;19.48
61977;BMP280;45905;50.570;10.428;2023-07-13T01:22:17;97696.00;;;19.43
61977;BMP280;45905;50.570;10.428;2023-07-13T01:24:48;97706.13;;;19.38
61977;BMP280;45905;50.570;10.428;2023-07-13T01:27:22;97703.41;;;19.33
61977;BMP280;45905;50.570;10.428;2023-07-13T01:29:53;97709.97;;;19.29
61977;BMP280;45905;50.570;10.428;2023-07-13T01:32:30;97707.69;;;19.22
61977;BMP280;45905;50.570;10.428;2023-07-13T01:35:01;97706.53;;;19.18
61977;BMP280;45905;50.570;10.428;2023-07-13T01:37:28;97704.41;;;19.15
61977;BMP280;45905;50.570;10.428;2023-07-13T01:40:00;97708.94;;;19.13
61977;BMP280;45905;50.570;10.428;2023-07-13T01:42:30;97717.66;;;19.12
61977;BMP280;45905;50.570;10.428;2023-07-13T01:44:57;97716.28;;;19.10
61977;BMP280;45905;50.570;10.428;2023-07-13T01:47:24;97717.50;;;19.07
61977;BMP280;45905;50.570;10.428;2023-07-13T01:49:53;97711.41;;;19.02
61977;BMP280;45905;50.570;10.428;2023-07-13T01:52:20;97705.94;;;18.98
61977;BMP280;45905;50.570;10.428;2023-07-13T01:54:47;97705.56;;;18.95
61977;BMP280;45905;50.570;10.428;2023-07-13T01:57:16;97705.63;;;18.89
61977;BMP280;45905;50.570;10.428;2023-07-13T01:59:43;97703.69;;;18.84
61977;BMP280;45905;50.570;10.428;2023-07-13T02:02:11;97702.53;;;18.80
61977;BMP280;45905;50.570;10.428;2023-07-13T02:04:38;97710.06;;;18.75
61977;BMP280;45905;50.570;10.428;2023-07-13T02:07:05;97704.75;;;18.71
61977;BMP280;45905;50.570;10.428;2023-07-13T02:09:32;97707.75;;;18.68
61977;BMP280;45905;50.570;10.428;2023-07-13T02:12:00;97717.06;;;18.62
61977;BMP280;45905;50.570;10.428;2023-07-13T02:14:32;97711.56;;;18.59
61977;BMP280;45905;50.570;10.428;2023-07-13T02:17:00;97712.97;;;18.55
61977;BMP280;45905;50.570;10.428;2023-07-13T02:19:27;97720.50;;;18.50
61977;BMP280;45905;50.570;10.428;2023-07-13T02:21:54;97717.59;;;18.47
61977;BMP280;45905;50.570;10.428;2023-07-13T02:24:21;97713.06;;;18.42
61977;BMP280;45905;50.570;10.428;2023-07-13T02:26:48;97713.25;;;18.41
61977;BMP280;45905;50.570;10.428;2023-07-13T02:29:15;97713.69;;;18.38
61977;BMP280;45905;50.570;10.428;2023-07-13T02:31:45;97712.31;;;18.35
61977;BMP280;45905;50.570;10.428;2023-07-13T02:34:12;97716.66;;;18.35
61977;BMP280;45905;50.570;10.428;2023-07-13T02:36:39;97720.06;;;18.29
61977;BMP280;45905;50.570;10.428;2023-07-13T02:39:08;97724.59;;;18.27
61977;BMP280;45905;50.570;10.428;2023-07-13T02:41:35;97720.66;;;18.25
61977;BMP280;45905;50.570;10.428;2023-07-13T02:44:03;97721.31;;;18.20
61977;BMP280;45905;50.570;10.428;2023-07-13T02:46:36;97729.41;;;18.17
61977;BMP280;45905;50.570;10.428;2023-07-13T02:49:05;97727.44;;;18.13
61977;BMP280;45905;50.570;10.428;2023-07-13T02:51:32;97726.28;;;18.09
61977;BMP280;45905;50.570;10.428;2023-07-13T02:54:02;97734.56;;;18.05
61977;BMP280;45905;50.570;10.428;2023-07-13T02:56:32;97729.09;;;18.01
61977;BMP280;45905;50.570;10.428;2023-07-13T02:58:59;97740.53;;;17.99
61977;BMP280;45905;50.570;10.428;2023-07-13T03:01:26;97740.13;;;17.95
61977;BMP280;45905;50.570;10.428;2023-07-13T03:03:54;97736.22;;;17.93
61977;BMP280;45905;50.570;10.428;2023-07-13T03:06:21;97738.59;;;17.88
61977;BMP280;45905;50.570;10.428;2023-07-13T03:08:52;97743.13;;;17.86
61977;BMP280;45905;50.570;10.428;2023-07-13T03:11:22;97747.06;;;17.82
61977;BMP280;45905;50.570;10.428;2023-07-13T03:14:00;97755.16;;;17.79
61977;BMP280;45905;50.570;10.428;2023-07-13T03:16:31;97745.34;;;17.76
61977;BMP280;45905;50.570;10.428;2023-07-13T03:18:59;97755.19;;;17.73
61977;BMP280;45905;50.570;10.428;2023-07-13T03:21:26;97748.09;;;17.69
61977;BMP280;45905;50.570;10.428;2023-07-13T03:23:54;97745.38;;;17.64
61977;BMP280;45905;50.570;10.428;2023-07-13T03:26:21;97747.75;;;17.59
61977;BMP280;45905;50.570;10.428;2023-07-13T03:28:48;97759.19;;;17.57
61977;BMP280;45905;50.570;10.428;2023-07-13T03:31:24;97753.66;;;17.53
61977;BMP280;45905;50.570;10.428;2023-07-13T03:33:52;97752.72;;;17.48
61977;BMP280;45905;50.570;10.428;2023-07-13T03:36:23;97768.66;;;17.43
61977;BMP280;45905;50.570;10.428;2023-07-13T03:38:57;97771.63;;;17.40
61977;BMP280;45905;50.570;10.428;2023-07-13T03:41:32;97765.72;;;17.34
61977;BMP280;45905;50.570;10.428;2023-07-13T03:43:59;97772.25;;;17.30
61977;BMP280;45905;50.570;10.428;2023-07-13T03:46:27;97775.38;;;17.25
61977;BMP280;45905;50.570;10.428;2023-07-13T03:48:54;97775.00;;;17.22
61977;BMP280;45905;50.570;10.428;2023-07-13T03:51:21;97776.97;;;17.20
61977;BMP280;45905;50.570;10.428;2023-07-13T03:53:49;97784.06;;;17.18
61977;BMP280;45905;50.570;10.428;2023-07-13T03:56:19;97781.91;;;17.15
61977;BMP280;45905;50.570;10.428;2023-07-13T03:58:49;97789.19;;;17.12
61977;BMP280;45905;50.570;10.428;2023-07-13T04:01:21;97792.31;;;17.07
61977;BMP280;45905;50.570;10.428;2023-07-13T04:03:49;97797.66;;;17.06
61977;BMP280;45905;50.570;10.428;2023-07-13T04:06:23;97790.56;;;17.01
61977;BMP280;45905;50.570;10.428;2023-07-13T04:08:56;97799.22;;;17.00
61977;BMP280;45905;50.570;10.428;2023-07-13T04:11:28;97795.88;;;17.00
61977;BMP280;45905;50.570;10.428;2023-07-13T04:13:56;97805.91;;;17.01
61977;BMP280;45905;50.570;10.428;2023-07-13T04:16:24;97806.91;;;17.00
61977;BMP280;45905;50.570;10.428;2023-07-13T04:18:52;97806.91;;;17.00
61977;BMP280;45905;50.570;10.428;2023-07-13T04:21:28;97808.84;;;16.99
61977;BMP280;45905;50.570;10.428;2023-07-13T04:23:56;97821.63;;;16.92
61977;BMP280;45905;50.570;10.428;2023-07-13T04:26:23;97818.66;;;16.82
61977;BMP280;45905;50.570;10.428;2023-07-13T04:28:51;97823.78;;;16.76
61977;BMP280;45905;50.570;10.428;2023-07-13T04:31:19;97823.59;;;16.78
61977;BMP280;45905;50.570;10.428;2023-07-13T04:33:47;97830.88;;;16.80
61977;BMP280;45905;50.570;10.428;2023-07-13T04:36:16;97830.88;;;16.80
61977;BMP280;45905;50.570;10.428;2023-07-13T04:38:44;97830.09;;;16.80
61977;BMP280;45905;50.570;10.428;2023-07-13T04:41:15;97822.59;;;16.79
61977;BMP280;45905;50.570;10.428;2023-07-13T04:43:42;97832.84;;;16.79
61977;BMP280;45905;50.570;10.428;2023-07-13T04:46:14;97819.84;;;16.80
61977;BMP280;45905;50.570;10.428;2023-07-13T04:48:42;97829.50;;;16.84
61977;BMP280;45905;50.570;10.428;2023-07-13T04:51:10;97818.09;;;16.87
61977;BMP280;45905;50.570;10.428;2023-07-13T04:53:38;97828.50;;;16.92
61977;BMP280;45905;50.570;10.428;2023-07-13T04:56:05;97825.78;;;16.99
61977;BMP280;45905;50.570;10.428;2023-07-13T04:58:33;97824.63;;;17.08
61977;BMP280;45905;50.570;10.428;2023-07-13T05:01:05;97816.34;;;17.13
61977;BMP280;45905;50.570;10.428;2023-07-13T05:03:33;97815.56;;;17.18
61977;BMP280;45905;50.570;10.428;2023-07-13T05:06:05;97825.81;;;17.18
61977;BMP280;45905;50.570;10.428;2023-07-13T05:08:33;97825.00;;;17.18
61977;BMP280;45905;50.570;10.428;2023-07-13T05:11:03;97823.66;;;17.22
61977;BMP280;45905;50.570;10.428;2023-07-13T05:13:30;97815.16;;;17.28
61977;BMP280;45905;50.570;10.428;2023-07-13T05:16:01;97832.88;;;17.36
61977;BMP280;45905;50.570;10.428;2023-07-13T05:18:30;97823.63;;;17.41
61977;BMP280;45905;50.570;10.428;2023-07-13T05:21:09;97832.09;;;17.48
61977;BMP280;45905;50.570;10.428;2023-07-13T05:23:38;97828.34;;;17.50
61977;BMP280;45905;50.570;10.428;2023-07-13T05:26:08;97830.50;;;17.53
61977;BMP280;45905;50.570;10.428;2023-07-13T05:28:36;97827.53;;;17.56
61977;BMP280;45905;50.570;10.428;2023-07-13T05:31:06;97833.28;;;17.58
61977;BMP280;45905;50.570;10.428;2023-07-13T05:33:34;97838.38;;;17.64
61977;BMP280;45905;50.570;10.428;2023-07-13T05:36:01;97838.78;;;17.68
61977;BMP280;45905;50.570;10.428;2023-07-13T05:38:29;97848.22;;;17.74
61977;BMP280;45905;50.570;10.428;2023-07-13T05:40:57;97839.13;;;17.77
61977;BMP280;45905;50.570;10.428;2023-07-13T05:43:25;97841.28;;;17.80
61977;BMP280;45905;50.570;10.428;2023-07-13T05:45:57;97842.28;;;17.86
61977;BMP280;45905;50.570;10.428;2023-07-13T05:48:24;97840.50;;;17.93
61977;BMP280;45905;50.570;10.428;2023-07-13T05:50:51;97836.34;;;17.98
61977;BMP280;45905;50.570;10.428;2023-07-13T05:53:18;97838.31;;;18.02
61977;BMP280;45905;50.570;10.428;2023-07-13T05:55:47;97835.91;;;18.07
61977;BMP280;45905;50.570;10.428;2023-07-13T05:58:14;97838.66;;;18.12
61977;BMP280;45905;50.570;10.428;2023-07-13T06:00:41;97849.50;;;18.20
61977;BMP280;45905;50.570;10.428;2023-07-13T06:03:09;97840.16;;;18.32
61977;BMP280;45905;50.570;10.428;2023-07-13T06:05:37;97835.97;;;18.44
61977;BMP280;45905;50.570;10.428;2023-07-13T06:08:06;97836.72;;;18.51
61977;BMP280;45905;50.570;10.428;2023-07-13T06:10:36;97836.66;;;18.57
61977;BMP280;45905;50.570;10.428;2023-07-13T06:13:03;97849.69;;;18.62
61977;BMP280;45905;50.570;10.428;2023-07-13T06:15:30;97840.16;;;18.69
61977;BMP280;45905;50.570;10.428;2023-07-13T06:17:57;97845.69;;;18.72
61977;BMP280;45905;50.570;10.428;2023-07-13T06:20:25;97844.72;;;18.73
61977;BMP280;45905;50.570;10.428;2023-07-13T06:22:55;97847.06;;;18.74
61977;BMP280;45905;50.570;10.428;2023-07-13T06:25:22;97844.28;;;18.76
61977;BMP280;45905;50.570;10.428;2023-07-13T06:27:50;97850.00;;;18.78
61977;BMP280;45905;50.570;10.428;2023-07-13T06:30:17;97848.03;;;18.80
61977;BMP280;45905;50.570;10.428;2023-07-13T06:32:44;97845.47;;;18.80
61977;BMP280;45905;50.570;10.428;2023-07-13T06:35:11;97854.75;;;18.81
61977;BMP280;45905;50.570;10.428;2023-07-13T06:37:40;97850.94;;;18.83
61977;BMP280;45905;50.570;10.428;2023-07-13T06:40:08;97861.41;;;18.88
61977;BMP280;45905;50.570;10.428;2023-07-13T06:42:35;97847.94;;;18.92
61977;BMP280;45905;50.570;10.428;2023-07-13T06:45:03;97863.25;;;19.05
61977;BMP280;45905;50.570;10.428;2023-07-13T06:47:30;97856.28;;;19.12
61977;BMP280;45905;50.570;10.428;2023-07-13T06:50:00;97862.59;;;19.16
61977;BMP280;45905;50.570;10.428;2023-07-13T06:52:28;97853.47;;;19.20
61977;BMP280;45905;50.570;10.428;2023-07-13T06:54:55;97856.75;;;19.27
61977;BMP280;45905;50.570;10.428;2023-07-13T06:57:22;97857.28;;;19.35
61977;BMP280;45905;50.570;10.428;2023-07-13T06:59:49;97857.66;;;19.38
61977;BMP280;45905;50.570;10.428;2023-07-13T07:02:17;97849.09;;;19.44
61977;BMP280;45905;50.570;10.428;2023-07-13T07:04:44;97858.34;;;19.51
61977;BMP280;45905;50.570;10.428;2023-07-13T07:07:11;97859.91;;;19.59
61977;BMP280;45905;50.570;10.428;2023-07-13T07:09:38;97862.59;;;19.64
61977;BMP280;45905;50.570;10.428;2023-07-13T07:12:06;97854.28;;;19.68
61977;BMP280;45905;50.570;10.428;2023-07-13T07:14:33;97853.28;;;19.69
61977;BMP280;45905;50.570;10.428;2023-07-13T07:17:01;97865.09;;;19.70
61977;BMP280;45905;50.570;10.428;2023-07-13T07:19:30;97870.81;;;19.72
61977;BMP280;45905;50.570;10.428;2023-07-13T07:21:57;97873.19;;;19.73
61977;BMP280;45905;50.570;10.428;2023-07-13T07:24:25;97864.50;;;19.74
61977;BMP280;45905;50.570;10.428;2023-07-13T07:26:52;97863.28;;;19.77
61977;BMP280;45905;50.570;10.428;2023-07-13T07:29:22;97872.72;;;19.83
61977;BMP280;45905;50.570;10.428;2023-07-13T07:31:54;97868.94;;;19.85
61977;BMP280;45905;50.570;10.428;2023-07-13T07:34:25;97863.94;;;19.90
61977;BMP280;45905;50.570;10.428;2023-07-13T07:36:53;97864.09;;;19.95
61977;BMP280;45905;50.570;10.428;2023-07-13T07:39:24;97863.44;;;19.99
61977;BMP280;45905;50.570;10.428;2023-07-13T07:41:51;97872.53;;;20.02
61977;BMP280;45905;50.570;10.428;2023-07-13T07:44:21;97863.81;;;20.03
61977;BMP280;45905;50.570;10.428;2023-07-13T07:46:48;97861.38;;;20.07
61977;BMP280;45905;50.570;10.428;2023-07-13T07:49:16;97868.44;;;20.12
61977;BMP280;45905;50.570;10.428;2023-07-13T07:51:43;97866.66;;;20.12
61977;BMP280;45905;50.570;10.428;2023-07-13T07:54:11;97870.56;;;20.15
61977;BMP280;45905;50.570;10.428;2023-07-13T07:56:52;97868.94;;;20.20
61977;BMP280;45905;50.570;10.428;2023-07-13T07:59:23;97862.16;;;20.25
61977;BMP280;45905;50.570;10.428;2023-07-13T08:01:53;97859.94;;;20.29
61977;BMP280;45905;50.570;10.428;2023-07-13T08:04:23;97867.78;;;20.34
61977;BMP280;45905;50.570;10.428;2023-07-13T08:06:53;97870.53;;;20.39
61977;BMP280;45905;50.570;10.428;2023-07-13T08:09:20;97874.25;;;20.43
61977;BMP280;45905;50.570;10.428;2023-07-13T08:11:47;97871.56;;;20.49
61977;BMP280;45905;50.570;10.428;2023-07-13T08:14:18;97870.72;;;20.55
61977;BMP280;45905;50.570;10.428;2023-07-13T08:16:46;97870.84;;;20.60
61977;BMP280;45905;50.570;10.428;2023-07-13T08:19:13;97878.94;;;20.63
61977;BMP280;45905;50.570;10.428;2023-07-13T08:21:41;97881.63;;;20.68
61977;BMP280;45905;50.570;10.428;2023-07-13T08:24:10;97883.00;;;20.70
61977;BMP280;45905;50.570;10.428;2023-07-13T08:26:37;97862.97;;;20.72
61977;BMP280;45905;50.570;10.428;2023-07-13T08:29:05;97869.44;;;20.75
61977;BMP280;45905;50.570;10.428;2023-07-13T08:31:32;97879.31;;;20.78
61977;BMP280;45905;50.570;10.428;2023-07-13T08:34:00;97879.47;;;20.83
61977;BMP280;45905;50.570;10.428;2023-07-13T08:36:29;97875.44;;;20.86
61977;BMP280;45905;50.570;10.428;2023-07-13T08:38:56;97875.22;;;20.88
61977;BMP280;45905;50.570;10.428;2023-07-13T08:41:23;97874.22;;;20.89
61977;BMP280;45905;50.570;10.428;2023-07-13T08:43:57;97876.13;;;20.93
61977;BMP280;45905;50.570;10.428;2023-07-13T08:46:47;97878.06;;;20.98
61977;BMP280;45905;50.570;10.428;2023-07-13T08:49:22;97870.44;;;21.02
61977;BMP280;45905;50.570;10.428;2023-07-13T08:52:01;97871.38;;;21.08
61977;BMP280;45905;50.570;10.428;2023-07-13T08:54:39;97879.81;;;21.15
61977;BMP280;45905;50.570;10.428;2023-07-13T08:57:21;97883.50;;;21.19
61977;BMP280;45905;50.570;10.428;2023-07-13T08:59:50;97882.84;;;21.23
61977;BMP280;45905;50.570;10.428;2023-07-13T09:02:57;97888.47;;;21.31
61977;BMP280;45905;50.570;10.428;2023-07-13T09:05:32;97878.53;;;21.35
61977;BMP280;45905;50.570;10.428;2023-07-13T09:08:05;97875.63;;;21.42
61977;BMP280;45905;50.570;10.428;2023-07-13T09:10:52;97880.09;;;21.47
61977;BMP280;45905;50.570;10.428;2023-07-13T09:16:17;97881.31;;;21.56
61977;BMP280;45905;50.570;10.428;2023-07-13T09:18:50;97870.94;;;21.62
61977;BMP280;45905;50.570;10.428;2023-07-13T09:21:29;97881.69;;;21.70
61977;BMP280;45905;50.570;10.428;2023-07-13T09:24:20;97886.50;;;21.78
61977;BMP280;45905;50.570;10.428;2023-07-13T09:26:50;97884.19;;;21.88
61977;BMP280;45905;50.570;10.428;2023-07-13T09:29:29;97894.69;;;21.98
61977;BMP280;45905;50.570;10.428;2023-07-13T09:32:01;97888.19;;;22.06
61977;BMP280;45905;50.570;10.428;2023-07-13T09:34:30;97887.28;;;22.12
61977;BMP280;45905;50.570;10.428;2023-07-13T09:36:59;97891.09;;;22.21
61977;BMP280;45905;50.570;10.428;2023-07-13T09:39:40;97887.59;;;22.27
61977;BMP280;45905;50.570;10.428;2023-07-13T09:42:19;97890.59;;;22.35
61977;BMP280;45905;50.570;10.428;2023-07-13T09:45:00;97888.69;;;22.42
61977;BMP280;45905;50.570;10.428;2023-07-13T09:47:38;97886.06;;;22.53
61977;BMP280;45905;50.570;10.428;2023-07-13T09:50:14;97880.00;;;22.59
61977;BMP280;45905;50.570;10.428;2023-07-13T09:52:49;97888.09;;;22.62
61977;BMP280;45905;50.570;10.428;2023-07-13T09:55:37;97895.06;;;22.62
61977;BMP280;45905;50.570;10.428;2023-07-13T09:58:15;97891.13;;;22.59
61977;BMP280;45905;50.570;10.428;2023-07-13T10:00:54;97900.34;;;22.67
61977;BMP280;45905;50.570;10.428;2023-07-13T10:03:30;97891.97;;;22.76
61977;BMP280;45905;50.570;10.428;2023-07-13T10:06:18;97881.81;;;22.86
61977;BMP280;45905;50.570;10.428;2023-07-13T10:08:46;97890.53;;;22.96
61977;BMP280;45905;50.570;10.428;2023-07-13T10:11:26;97885.59;;;22.94
61977;BMP280;45905;50.570;10.428;2023-07-13T10:13:54;97883.56;;;22.96
61977;BMP280;45905;50.570;10.428;2023-07-13T10:16:29;97884.59;;;22.95
61977;BMP280;45905;50.570;10.428;2023-07-13T10:19:14;97882.63;;;23.02
61977;BMP280;45905;50.570;10.428;2023-07-13T10:21:56;97889.78;;;23.12
61977;BMP280;45905;50.570;10.428;2023-07-13T10:24:37;97890.97;;;23.20
61977;BMP280;45905;50.570;10.428;2023-07-13T10:27:21;97889.59;;;23.29
61977;BMP280;45905;50.570;10.428;2023-07-13T10:30:34;97893.75;;;23.46
61977;BMP280;45905;50.570;10.428;2023-07-13T10:33:10;97880.75;;;23.57
61977;BMP280;45905;50.570;10.428;2023-07-13T10:35:44;97881.94;;;23.66
61977;BMP280;45905;50.570;10.428;2023-07-13T10:38:20;97870.94;;;23.75
61977;BMP280;45905;50.570;10.428;2023-07-13T10:40:56;97861.72;;;23.79
61977;BMP280;45905;50.570;10.428;2023-07-13T10:43:33;97879.63;;;23.86
61977;BMP280;45905;50.570;10.428;2023-07-13T10:46:06;97870.16;;;24.07
61977;BMP280;45905;50.570;10.428;2023-07-13T10:48:36;97876.31;;;24.22
61977;BMP280;45905;50.570;10.428;2023-07-13T10:51:06;97878.72;;;24.29
61977;BMP280;45905;50.570;10.428;2023-07-13T10:53:37;97879.25;;;24.30
61977;BMP280;45905;50.570;10.428;2023-07-13T10:56:22;97881.13;;;24.14
61977;BMP280;45905;50.570;10.428;2023-07-13T11:02:08;97884.00;;;24.38
61977;BMP280;45905;50.570;10.428;2023-07-13T11:04:47;97876.06;;;24.45
61977;BMP280;45905;50.570;10.428;2023-07-13T11:07:30;97865.88;;;24.38
61977;BMP280;45905;50.570;10.428;2023-07-13T11:10:05;97874.78;;;24.26
61977;BMP280;45905;50.570;10.428;2023-07-13T11:12:54;97868.34;;;24.29
61977;BMP280;45905;50.570;10.428;2023-07-13T11:15:44;97873.06;;;24.31
61977;BMP280;45905;50.570;10.428;2023-07-13T11:18:24;97868.66;;;24.32
61977;BMP280;45905;50.570;10.428;2023-07-13T11:21:12;97863.50;;;24.32
61977;BMP280;45905;50.570;10.428;2023-07-13T11:24:17;97868.00;;;24.41
61977;BMP280;45905;50.570;10.428;2023-07-13T11:31:58;97873.34;;;24.56
61977;BMP280;45905;50.570;10.428;2023-07-13T11:34:38;97868.25;;;24.61
61977;BMP280;45905;50.570;10.428;2023-07-13T11:37:14;97863.84;;;24.61
61977;BMP280;45905;50.570;10.428;2023-07-13T11:39:44;97865.25;;;24.68
61977;BMP280;45905;50.570;10.428;2023-07-13T11:42:17;97861.94;;;24.78
61977;BMP280;45905;50.570;10.428;2023-07-13T11:44:49;97849.09;;;24.87
61977;BMP280;45905;50.570;10.428;2023-07-13T11:47:40;97854.09;;;24.94
61977;BMP280;45905;50.570;10.428;2023-07-13T11:50:23;97853.41;;;25.03
61977;BMP280;45905;50.570;10.428;2023-07-13T11:52:53;97851.84;;;25.02
61977;BMP280;45905;50.570;10.428;2023-07-13T11:55:22;97860.41;;;25.03
61977;BMP280;45905;50.570;10.428;2023-07-13T11:57:58;97874.72;;;24.84
61977;BMP280;45905;50.570;10.428;2023-07-13T12:00:31;97879.72;;;24.69
61977;BMP280;45905;50.570;10.428;2023-07-13T12:03:03;97871.97;;;24.69
61977;BMP280;45905;50.570;10.428;2023-07-13T12:05:32;97863.81;;;24.82
61977;BMP280;45905;50.570;10.428;2023-07-13T12:08:09;97867.00;;;24.89
61977;BMP280;45905;50.570;10.428;2023-07-13T12:11:03;97861.34;;;24.92
61977;BMP280;45905;50.570;10.428;2023-07-13T12:13:37;97854.38;;;24.97
61977;BMP280;45905;50.570;10.428;2023-07-13T12:16:15;97859.88;;;25.01
61977;BMP280;45905;50.570;10.428;2023-07-13T12:18:44;97869.22;;;25.02
61977;BMP280;45905;50.570;10.428;2023-07-13T12:21:17;97861.94;;;25.04
61977;BMP280;45905;50.570;10.428;2023-07-13T12:23:48;97853.69;;;25.06
61977;BMP280;45905;50.570;10.428;2023-07-13T12:26:18;97867.53;;;25.17
61977;BMP280;45905;50.570;10.428;2023-07-13T12:28:52;97863.00;;;25.28
61977;BMP280;45905;50.570;10.428;2023-07-13T12:31:41;97867.50;;;25.38
61977;BMP280;45905;50.570;10.428;2023-07-13T12:34:16;97855.56;;;25.42
61977;BMP280;45905;50.570;10.428;2023-07-13T12:36:59;97854.56;;;25.43
61977;BMP280;45905;50.570;10.428;2023-07-13T12:39:37;97861.84;;;25.45
61977;BMP280;45905;50.570;10.428;2023-07-13T12:42:33;97854.63;;;25.52
61977;BMP280;45905;50.570;10.428;2023-07-13T12:45:18;97855.19;;;25.59
61977;BMP280;45905;50.570;10.428;2023-07-13T12:47:56;97860.75;;;25.77
61977;BMP280;45905;50.570;10.428;2023-07-13T12:50:43;97860.63;;;25.88
61977;BMP280;45905;50.570;10.428;2023-07-13T12:53:20;97860.69;;;25.98
61977;BMP280;45905;50.570;10.428;2023-07-13T12:55:56;97883.03;;;26.09
61977;BMP280;45905;50.570;10.428;2023-07-13T12:58:30;97877.28;;;26.02
61977;BMP280;45905;50.570;10.428;2023-07-13T13:01:02;97866.91;;;26.02
61977;BMP280;45905;50.570;10.428;2023-07-13T13:03:32;97866.16;;;26.06
61977;BMP280;45905;50.570;10.428;2023-07-13T13:06:26;97873.00;;;26.22
61977;BMP280;45905;50.570;10.428;2023-07-13T13:08:59;97864.97;;;26.28
61977;BMP280;45905;50.570;10.428;2023-07-13T13:11:30;97871.03;;;26.43
61977;BMP280;45905;50.570;10.428;2023-07-13T13:13:57;97871.06;;;26.53
61977;BMP280;45905;50.570;10.428;2023-07-13T13:16:43;97870.31;;;26.62
61977;BMP280;45905;50.570;10.428;2023-07-13T13:19:28;97878.66;;;26.64
61977;BMP280;45905;50.570;10.428;2023-07-13T13:21:56;97876.03;;;26.60
61977;BMP280;45905;50.570;10.428;2023-07-13T13:24:27;97873.75;;;26.78
61977;BMP280;45905;50.570;10.428;2023-07-13T13:26:55;97876.06;;;26.69
61977;BMP280;45905;50.570;10.428;2023-07-13T13:29:27;97881.25;;;26.60
61977;BMP280;45905;50.570;10.428;2023-07-13T13:31:55;97874.19;;;26.55
61977;BMP280;45905;50.570;10.428;2023-07-13T13:34:24;97884.34;;;26.52
61977;BMP280;45905;50.570;10.428;2023-07-13T13:36:54;97884.22;;;26.37
61977;BMP280;45905;50.570;10.428;2023-07-13T13:39:34;97886.28;;;26.35
61977;BMP280;45905;50.570;10.428;2023-07-13T13:42:02;97869.38;;;26.28
61977;BMP280;45905;50.570;10.428;2023-07-13T13:44:30;97880.34;;;25.89
61977;BMP280;45905;50.570;10.428;2023-07-13T13:46:57;97887.50;;;25.83
61977;BMP280;45905;50.570;10.428;2023-07-13T13:49:27;97885.00;;;25.87
61977;BMP280;45905;50.570;10.428;2023-07-13T13:51:56;97880.19;;;25.75
61977;BMP280;45905;50.570;10.428;2023-07-13T13:54:24;97888.53;;;25.77
61977;BMP280;45905;50.570;10.428;2023-07-13T13:56:53;97883.88;;;25.83
61977;BMP280;45905;50.570;10.428;2023-07-13T13:59:20;97882.88;;;25.84
61977;BMP280;45905;50.570;10.428;2023-07-13T14:01:48;97886.59;;;25.93
61977;BMP280;45905;50.570;10.428;2023-07-13T14:04:21;97884.28;;;25.97
61977;BMP280;45905;50.570;10.428;2023-07-13T14:06:49;97887.19;;;26.05
61977;BMP280;45905;50.570;10.428;2023-07-13T14:09:18;97892.38;;;26.05
61977;BMP280;45905;50.570;10.428;2023-07-13T14:11:49;97887.91;;;25.96
61977;BMP280;45905;50.570;10.428;2023-07-13T14:14:24;97881.91;;;25.90
61977;BMP280;45905;50.570;10.428;2023-07-13T14:16:55;97880.84;;;25.91
61977;BMP280;45905;50.570;10.428;2023-07-13T14:19:23;97884.19;;;25.87
61977;BMP280;45905;50.570;10.428;2023-07-13T14:21:51;97880.97;;;25.70
61977;BMP280;45905;50.570;10.428;2023-07-13T14:24:21;97891.59;;;25.69
61977;BMP280;45905;50.570;10.428;2023-07-13T14:26:48;97887.91;;;25.65
61977;BMP280;45905;50.570;10.428;2023-07-13T14:29:18;97878.06;;;25.67
61977;BMP280;45905;50.570;10.428;2023-07-13T14:31:51;97870.28;;;25.67
61977;BMP280;45905;50.570;10.428;2023-07-13T14:34:18;97878.31;;;25.65